Bentonsport, Iowa
Current Conditions -  °F | °C
As of 7:35 AM on Wednesday 22 Oct 2014 (Local Time) from KFFL Reporting Station
NA  
Wind Chill: 33°   Ceiling: NA
Heat Index: 37°   Visibility: NA
Dew Point: 36°   Wind: 6mph
Humidity: 93%   Direction: 120°ESE
Pressure: 30.29"   Gusts: NA
Location:  40.7687°N, 92.0788°W
Report Text: KFFL 221235Z AUTO 12005KT 03/02 A3029 RMK AO2
Loading
Personal Weather Stations






























Interactive Weather Map
Tropical Storm Tracking
New forecast layout! Learn more

10-Day Weather Forecast

Advertisements
Track Severe Weather on mobile